This is the latest recevied weather packets stored in our database for station/object OE9FWV. If no packets are shown the sender has not sent any weather packets the latest 1 day(s).
| Time | Temp. | Humidity | Pressure | Rain* | Wind** | Luminosity | Snow |
|---|---|---|---|---|---|---|---|
| 1778014611 | 13.89° C | 72% | 1009.1 hPa | 0 mm | 0 m/s | - | - |
| 1778014008 | 13.89° C | 71% | 1009.1 hPa | 0 mm | 0 m/s | - | - |
| 1778013406 | 14.44° C | 70% | 1009 hPa | 0 mm | 0 m/s | - | - |
| 1778012805 | 14.44° C | 70% | 1009 hPa | 0 mm | 0 m/s | - | - |
| 1778012204 | 14.44° C | 68% | 1009 hPa | 0 mm | 0 m/s | - | - |
| 1778011601 | 15° C | 67% | 1009 hPa | 0 mm | 0.45 m/s, 266° | - | - |
| 1778010994 | 15° C | 65% | 1008.9 hPa | 0 mm | 1.79 m/s, 226° | - | - |
| 1778010394 | 15° C | 65% | 1008.8 hPa | 0 mm | 2.24 m/s, 222° | - | - |
| 1778009792 | 15° C | 65% | 1008.7 hPa | 0 mm | 1.79 m/s, 217° | - | - |
| 1778007980 | 15.56° C | 63% | 1008.6 hPa | 0 mm | 2.68 m/s, 54° | - | - |
| 1778007371 | 15.56° C | 64% | 1008.5 hPa | 0 mm | 1.34 m/s, 57° | - | - |
| 1778006159 | 16.11° C | 65% | 1008.3 hPa | 0 mm | 3.58 m/s, 88° | - | - |
| 1778003743 | 16.67° C | 70% | 1007.7 hPa | 0 mm | 3.13 m/s, 336° | - | - |
| 1778003143 | 17.22° C | 69% | 1007.4 hPa | 0 mm | 1.34 m/s, 349° | - | - |
| 1778002535 | 17.22° C | 69% | 1007.3 hPa | 0 mm | 1.34 m/s, 349° | - | - |
| 1778001931 | 17.22° C | 69% | 1007.1 hPa | 0 mm | 0.45 m/s, 349° | - | - |
| 1778001329 | 17.22° C | 68% | 1007 hPa | 0 mm | 1.79 m/s, 4° | - | - |
| 1778000718 | 17.78° C | 67% | 1006.7 hPa | 0 mm | 1.79 m/s, 341° | - | - |
| 1778000113 | 17.78° C | 68% | 1006.7 hPa | 0 mm | 1.34 m/s, 341° | - | - |
| 1777999510 | 17.78° C | 67% | 1006.7 hPa | 0 mm | 0.89 m/s, 341° | - | - |
| 1777998901 | 17.78° C | 67% | 1006.6 hPa | 0 mm | 0.45 m/s, 335° | - | - |
| 1777997090 | 17.78° C | 68% | 1006.3 hPa | 0 mm | 2.68 m/s, 344° | - | - |
| 1777996490 | 17.78° C | 67% | 1006.3 hPa | 0 mm | 1.79 m/s, 360° | - | - |
| 1777995887 | 17.78° C | 66% | 1006.3 hPa | 0 mm | 2.68 m/s, 328° | - | - |
| 1777994074 | 18.33° C | 64% | 1006.2 hPa | 0 mm | 4.47 m/s, 10° | - | - |
* Rain latest hour (hover to see other rain measurements)
** Current wind speed in m/s (hover to see current wind gust speed)